Time;durP1;ratioP1;P1;durP2;ratioP2;P2;SDS_P1;SDS_P2;PMS_P1;PMS_P2;Temp;Humidity;BMP_temperature;BMP_pressure;BME280_temperature;BME280_humidity;BME280_pressure;Samples;Min_cycle;Max_cycle;Signal;HPM_P1;HPM_P2
2022/04/19 00:02:01;;;;;;;6.47;5.30;;;9.30;99.90;;;;;;5047010;28;20167;-72
2022/04/19 00:04:46;;;;;;;5.70;4.50;;;9.30;99.90;;;;;;5033773;28;20188;-72
2022/04/19 00:07:31;;;;;;;9.10;4.50;;;9.20;99.90;;;;;;5013225;28;20207;-73
2022/04/19 00:10:15;;;;;;;5.83;4.50;;;9.20;99.90;;;;;;5012774;28;20300;-73
2022/04/19 00:13:02;;;;;;;6.00;4.40;;;9.20;99.90;;;;;;5012924;28;20176;-72
2022/04/19 00:15:47;;;;;;;4.60;4.00;;;9.20;99.90;;;;;;5012737;28;20287;-71
2022/04/19 00:18:32;;;;;;;5.47;4.20;;;9.20;99.90;;;;;;5004238;28;20192;-71
2022/04/19 00:21:18;;;;;;;6.77;4.23;;;9.10;99.90;;;;;;5012594;28;20195;-71
2022/04/19 00:24:03;;;;;;;5.77;4.07;;;9.10;99.90;;;;;;5008666;28;20685;-72
2022/04/19 00:26:48;;;;;;;6.33;4.33;;;9.10;99.90;;;;;;5006130;28;20243;-74
2022/04/19 00:29:32;;;;;;;5.40;3.90;;;9.10;99.90;;;;;;5012402;28;20224;-72
2022/04/19 00:32:17;;;;;;;5.30;3.70;;;9.10;99.90;;;;;;5012823;28;20179;-73
2022/04/19 00:35:03;;;;;;;5.07;3.90;;;9.10;99.90;;;;;;5012419;28;20219;-72
2022/04/19 00:37:49;;;;;;;5.47;3.53;;;9.10;99.90;;;;;;5006639;28;20242;-71
2022/04/19 00:40:37;;;;;;;4.43;4.00;;;9.00;99.90;;;;;;5006930;28;20309;-73
2022/04/19 00:43:22;;;;;;;6.93;3.90;;;9.00;99.90;;;;;;5006397;28;20173;-72
2022/04/19 00:46:06;;;;;;;4.97;3.47;;;9.00;99.90;;;;;;5012334;28;20215;-71
2022/04/19 00:48:52;;;;;;;5.23;3.90;;;9.00;99.90;;;;;;5012443;28;20216;-72
2022/04/19 00:51:36;;;;;;;4.00;3.40;;;9.00;99.90;;;;;;5012572;28;20188;-70
2022/04/19 00:54:22;;;;;;;4.57;3.63;;;9.00;99.90;;;;;;5012159;28;20188;-72
2022/04/19 00:57:07;;;;;;;5.20;3.53;;;8.90;99.90;;;;;;5030536;28;20183;-71
2022/04/19 00:59:56;;;;;;;3.37;3.07;;;8.90;99.90;;;;;;5045702;28;20705;-73
2022/04/19 01:02:41;;;;;;;4.10;3.50;;;8.90;99.90;;;;;;5041361;28;20217;-74
2022/04/19 01:05:26;;;;;;;7.57;3.40;;;8.80;99.90;;;;;;5010548;28;20262;-72
2022/04/19 01:08:11;;;;;;;4.20;3.63;;;8.80;99.90;;;;;;5011934;28;20175;-72
2022/04/19 01:13:17;;;;;;;4.00;3.30;;;8.80;99.90;;;;;;5013544;28;20176;-72
2022/04/19 01:14:03;;;;;;;4.50;3.70;;;8.70;99.90;;;;;;5032187;28;20291;-72
2022/04/19 01:16:48;;;;;;;5.73;3.77;;;8.80;99.90;;;;;;5026517;28;20220;-72
2022/04/19 01:19:35;;;;;;;5.33;3.00;;;8.80;99.90;;;;;;4993291;28;20197;-75
2022/04/19 01:22:19;;;;;;;4.47;3.47;;;8.70;99.90;;;;;;4991630;28;20679;-71
2022/04/19 01:25:05;;;;;;;7.87;3.57;;;8.70;99.90;;;;;;5003468;28;20215;-73
2022/04/19 01:27:49;;;;;;;4.33;3.50;;;8.70;99.90;;;;;;5011391;28;20675;-72
2022/04/19 01:30:36;;;;;;;4.07;3.10;;;8.70;99.90;;;;;;5011019;28;20227;-72
2022/04/19 01:33:21;;;;;;;4.83;3.40;;;8.60;99.90;;;;;;4991235;28;20176;-71
2022/04/19 01:36:09;;;;;;;4.83;3.43;;;8.60;99.90;;;;;;4998135;28;20207;-72
2022/04/19 01:38:53;;;;;;;4.53;3.20;;;8.60;99.90;;;;;;5005054;28;20228;-72
2022/04/19 01:41:39;;;;;;;5.70;3.70;;;8.60;99.90;;;;;;4991367;28;20223;-72
2022/04/19 01:44:24;;;;;;;5.50;3.17;;;8.50;99.90;;;;;;4991364;28;20260;-72
2022/04/19 01:47:08;;;;;;;4.20;3.40;;;8.50;99.90;;;;;;5005258;28;20204;-72
2022/04/19 01:49:53;;;;;;;4.53;3.33;;;8.50;99.90;;;;;;5011290;28;20220;-71
2022/04/19 01:52:38;;;;;;;4.27;3.43;;;8.50;99.90;;;;;;5008180;28;20228;-72
2022/04/19 01:55:23;;;;;;;4.97;3.30;;;8.50;99.90;;;;;;5028505;28;20211;-73
2022/04/19 01:58:09;;;;;;;5.03;3.43;;;8.50;99.90;;;;;;5045132;28;20227;-72
2022/04/19 02:00:54;;;;;;;4.33;3.50;;;8.50;99.90;;;;;;5021561;28;20204;-73
2022/04/19 02:03:39;;;;;;;8.33;3.90;;;8.40;99.90;;;;;;5005098;28;20196;-72
2022/04/19 02:06:51;;;;;;;5.03;3.67;;;8.40;99.90;;;;;;5006591;28;20215;-72
2022/04/19 02:10:24;;;;;;;6.43;3.70;;;8.40;99.90;;;;;;5005702;28;20216;-71
2022/04/19 02:13:18;;;;;;;7.77;3.90;;;8.40;99.90;;;;;;5010455;28;20323;-73
2022/04/19 02:16:21;;;;;;;5.17;3.70;;;8.30;99.90;;;;;;5000606;28;20276;-72
2022/04/19 02:19:05;;;;;;;6.03;4.37;;;8.30;99.90;;;;;;4998542;28;20279;-73
2022/04/19 02:21:50;;;;;;;5.57;3.83;;;8.20;99.90;;;;;;5000965;28;20286;-73
2022/04/19 02:24:35;;;;;;;6.27;4.10;;;8.20;99.90;;;;;;5000752;28;20230;-72
2022/04/19 02:27:19;;;;;;;5.57;4.00;;;8.20;99.90;;;;;;5003913;28;20663;-72
2022/04/19 02:30:05;;;;;;;5.77;3.90;;;8.20;99.90;;;;;;5016584;28;20231;-72
2022/04/19 02:33:08;;;;;;;6.83;4.00;;;8.20;99.90;;;;;;5005329;28;20607;-73
2022/04/19 02:36:03;;;;;;;8.23;4.03;;;8.10;99.90;;;;;;5009398;28;20226;-72
2022/04/19 02:38:48;;;;;;;6.00;4.20;;;8.10;99.90;;;;;;5010678;28;20195;-74
2022/04/19 02:41:32;;;;;;;9.17;4.10;;;8.10;99.90;;;;;;5021218;28;20191;-72
2022/04/19 02:44:17;;;;;;;6.90;4.03;;;8.10;99.90;;;;;;5026433;28;20222;-71
2022/04/19 02:47:02;;;;;;;6.83;4.17;;;8.10;99.90;;;;;;5035038;28;20183;-73
2022/04/19 02:49:47;;;;;;;6.87;4.13;;;8.10;99.90;;;;;;5026681;28;20210;-73
2022/04/19 02:52:31;;;;;;;4.83;3.77;;;8.00;99.90;;;;;;5042775;28;20203;-73
2022/04/19 02:55:15;;;;;;;6.13;4.03;;;8.00;99.90;;;;;;5011904;28;20289;-71
2022/04/19 02:58:00;;;;;;;4.83;3.70;;;8.00;99.90;;;;;;4994582;28;20188;-73
2022/04/19 03:00:44;;;;;;;8.13;4.43;;;8.00;99.90;;;;;;4994551;28;20258;-73
2022/04/19 03:03:29;;;;;;;7.00;4.43;;;7.90;99.90;;;;;;4994826;28;20181;-73
2022/04/19 03:06:14;;;;;;;7.60;3.80;;;7.90;99.90;;;;;;4995178;28;20300;-71
2022/04/19 03:08:58;;;;;;;6.07;4.40;;;7.80;99.90;;;;;;5012463;28;20243;-71
2022/04/19 03:11:42;;;;;;;7.63;4.47;;;7.80;99.90;;;;;;5022085;28;20238;-72
2022/04/19 03:14:26;;;;;;;8.90;4.70;;;7.80;99.90;;;;;;5008498;28;20297;-74
2022/04/19 03:17:11;;;;;;;5.60;4.40;;;7.80;99.90;;;;;;4994913;28;20169;-73
2022/04/19 03:19:55;;;;;;;8.93;4.83;;;7.80;99.90;;;;;;4995642;28;20180;-73
2022/04/19 03:28:46;;;;;;;8.93;3.90;;;7.80;99.90;;;;;;5014694;28;20303;-73
2022/04/19 03:31:31;;;;;;;7.77;4.63;;;7.80;99.90;;;;;;5013714;28;20328;-71
2022/04/19 03:34:16;;;;;;;7.33;4.40;;;7.80;99.90;;;;;;5013802;28;20188;-72
2022/04/19 03:37:00;;;;;;;6.70;4.80;;;7.80;99.90;;;;;;5013799;28;20247;-71
2022/04/19 03:39:44;;;;;;;6.73;4.43;;;7.70;99.90;;;;;;5012796;28;20231;-74
2022/04/19 03:42:28;;;;;;;7.83;5.00;;;7.70;99.90;;;;;;5013658;28;20259;-72
2022/04/19 03:45:12;;;;;;;6.57;4.83;;;7.70;99.90;;;;;;5009664;28;20225;-73
2022/04/19 03:47:56;;;;;;;9.03;4.63;;;7.70;99.90;;;;;;5029864;28;20195;-72
2022/04/19 03:50:41;;;;;;;6.50;4.53;;;7.70;99.90;;;;;;5027139;28;20216;-72
2022/04/19 03:53:25;;;;;;;8.93;4.90;;;7.70;99.90;;;;;;5012761;28;20295;-72
2022/04/19 03:56:10;;;;;;;6.47;4.73;;;7.60;99.90;;;;;;5013013;28;20216;-73
2022/04/19 03:58:54;;;;;;;7.20;4.67;;;7.70;99.90;;;;;;5013054;28;20194;-73
2022/04/19 04:01:38;;;;;;;6.97;4.60;;;7.70;99.90;;;;;;5013215;28;20184;-71
2022/04/19 04:04:22;;;;;;;9.17;5.00;;;7.60;99.90;;;;;;5012640;28;20181;-71
2022/04/19 04:07:07;;;;;;;6.20;4.77;;;7.60;99.90;;;;;;5013103;28;20172;-72
2022/04/19 04:09:51;;;;;;;5.83;4.33;;;7.60;99.90;;;;;;5012535;28;20247;-73
2022/04/19 04:12:36;;;;;;;7.07;4.73;;;7.50;99.90;;;;;;5013073;28;20168;-72
2022/04/19 04:15:20;;;;;;;7.37;4.83;;;7.50;99.90;;;;;;5012803;28;20208;-71
2022/04/19 04:18:05;;;;;;;9.10;4.90;;;7.50;99.90;;;;;;5012164;28;20183;-73
2022/04/19 04:20:49;;;;;;;6.60;4.63;;;7.50;99.90;;;;;;5012480;28;20180;-69
2022/04/19 04:23:34;;;;;;;12.53;4.93;;;7.50;99.90;;;;;;5011487;28;20197;-73
2022/04/19 04:26:18;;;;;;;7.77;4.80;;;7.50;99.90;;;;;;5012062;28;20244;-72
2022/04/19 04:29:02;;;;;;;7.67;4.90;;;7.40;99.90;;;;;;5026496;28;20203;-72
2022/04/19 04:31:46;;;;;;;9.80;4.50;;;7.40;99.90;;;;;;5026715;28;20216;-71
2022/04/19 04:34:31;;;;;;;7.47;4.97;;;7.40;99.90;;;;;;5026002;28;20199;-72
2022/04/19 04:37:15;;;;;;;7.40;4.53;;;7.40;99.90;;;;;;5025976;28;20200;-72
2022/04/19 04:39:59;;;;;;;8.57;4.63;;;7.40;99.90;;;;;;4992427;28;20324;-72
2022/04/19 04:42:43;;;;;;;6.07;4.30;;;7.30;99.90;;;;;;4992894;28;20192;-73
2022/04/19 04:45:27;;;;;;;7.67;4.80;;;7.30;99.90;;;;;;5006992;28;20279;-73
2022/04/19 04:51:15;;;;;;;7.33;4.83;;;7.30;99.90;;;;;;5032588;28;20277;-72
2022/04/19 04:53:59;;;;;;;8.87;5.33;;;7.30;99.90;;;;;;5045639;28;20277;-73
2022/04/19 04:56:43;;;;;;;7.67;4.70;;;7.30;99.90;;;;;;5045352;28;20281;-72
2022/04/19 04:59:27;;;;;;;7.17;4.90;;;7.20;99.90;;;;;;5045896;28;20171;-72
2022/04/19 05:02:11;;;;;;;9.03;5.63;;;7.30;99.90;;;;;;5045788;28;20167;-72
2022/04/19 05:04:55;;;;;;;9.33;5.23;;;7.30;99.90;;;;;;5045292;28;20246;-71
2022/04/19 05:07:40;;;;;;;7.47;5.30;;;7.20;99.90;;;;;;5033655;28;20275;-73
2022/04/19 05:10:25;;;;;;;7.57;4.90;;;7.20;99.90;;;;;;5011252;28;20316;-73
2022/04/19 05:13:09;;;;;;;8.50;5.30;;;7.30;99.90;;;;;;5011311;28;20220;-72
2022/04/19 05:16:08;;;;;;;7.00;4.93;;;7.30;99.90;;;;;;5010712;28;20247;-72
2022/04/19 05:18:52;;;;;;;8.87;5.67;;;7.30;99.90;;;;;;5016799;28;20665;-72
2022/04/19 05:21:37;;;;;;;8.47;4.97;;;7.30;99.90;;;;;;5033858;28;20320;-72
2022/04/19 05:24:21;;;;;;;9.13;5.60;;;7.30;99.90;;;;;;5010997;28;20187;-73
2022/04/19 05:27:06;;;;;;;9.00;5.43;;;7.40;99.90;;;;;;5018296;28;20223;-72
2022/04/19 05:29:50;;;;;;;9.37;5.20;;;7.30;99.90;;;;;;5011657;28;20614;-72
2022/04/19 05:32:34;;;;;;;8.33;5.07;;;7.30;99.90;;;;;;5006275;28;20192;-74
2022/04/19 05:35:18;;;;;;;7.57;5.27;;;7.30;99.90;;;;;;5025791;28;20340;-73
2022/04/19 05:38:03;;;;;;;8.47;5.10;;;7.30;99.90;;;;;;5026871;28;20242;-74
2022/04/19 05:40:48;;;;;;;6.13;3.97;;;7.30;99.90;;;;;;5005187;28;20271;-73
2022/04/19 05:43:32;;;;;;;6.47;4.20;;;7.40;99.90;;;;;;5009722;28;20203;-74
2022/04/19 05:46:17;;;;;;;6.07;4.73;;;7.40;99.90;;;;;;5012132;28;20219;-72
2022/04/19 05:49:04;;;;;;;5.27;4.17;;;7.50;99.90;;;;;;5018919;28;20291;-73
2022/04/19 05:51:49;;;;;;;7.40;4.50;;;7.40;99.90;;;;;;5012639;28;20195;-72
2022/04/19 05:54:33;;;;;;;6.63;4.07;;;7.50;99.90;;;;;;5017573;28;20234;-74
2022/04/19 05:57:18;;;;;;;10.00;4.30;;;7.50;99.90;;;;;;5010010;28;20543;-72
2022/04/19 06:00:03;;;;;;;7.57;4.57;;;7.60;99.90;;;;;;5016034;28;20199;-72
2022/04/19 06:05:50;;;;;;;5.43;4.00;;;7.70;99.90;;;;;;5007925;28;20235;-72
2022/04/19 06:08:35;;;;;;;8.80;4.50;;;7.70;99.90;;;;;;5011840;28;20250;-73
2022/04/19 06:11:20;;;;;;;5.00;4.07;;;7.80;99.90;;;;;;5028644;28;20220;-73
2022/04/19 06:14:04;;;;;;;5.50;3.80;;;7.80;99.90;;;;;;5007487;28;20217;-74
2022/04/19 06:16:49;;;;;;;5.00;3.70;;;7.90;99.90;;;;;;5013927;28;20291;-69
2022/04/19 06:19:33;;;;;;;6.27;4.07;;;7.90;99.90;;;;;;5014763;28;20216;-71
2022/04/19 06:22:17;;;;;;;5.03;3.43;;;8.00;99.90;;;;;;5015034;28;20179;-70
2022/04/19 06:25:03;;;;;;;6.33;3.67;;;8.00;99.90;;;;;;5010151;28;20258;-70
2022/04/19 06:27:47;;;;;;;4.93;3.37;;;8.10;99.90;;;;;;5011544;28;20199;-70
2022/04/19 06:30:32;;;;;;;4.30;3.00;;;8.10;99.90;;;;;;5010325;28;20276;-71
2022/04/19 06:33:16;;;;;;;6.03;3.70;;;8.20;99.90;;;;;;5012733;28;20187;-70
2022/04/19 06:36:07;;;;;;;4.73;3.63;;;8.30;99.90;;;;;;5010837;28;20215;-71
2022/04/19 06:38:52;;;;;;;4.60;3.70;;;8.40;99.90;;;;;;5013088;28;20168;-69
2022/04/19 06:41:47;;;;;;;4.07;3.27;;;8.50;99.90;;;;;;5016389;28;20196;-70
2022/04/19 06:44:32;;;;;;;6.30;3.47;;;8.60;99.90;;;;;;5025525;28;20227;-69
2022/04/19 06:47:16;;;;;;;4.83;3.37;;;8.60;99.90;;;;;;5005270;28;20199;-71
2022/04/19 06:50:01;;;;;;;4.33;3.43;;;8.70;99.90;;;;;;5017618;28;20232;-70
2022/04/19 06:52:45;;;;;;;4.63;3.57;;;8.80;99.90;;;;;;5020430;28;20572;-73
2022/04/19 06:55:29;;;;;;;5.27;3.70;;;8.80;99.90;;;;;;5004767;28;20217;-68
2022/04/19 06:58:14;;;;;;;3.90;2.87;;;8.80;99.90;;;;;;4999653;28;20235;-68
2022/04/19 07:00:58;;;;;;;3.90;3.10;;;8.90;99.90;;;;;;5007729;28;20188;-69
2022/04/19 07:03:42;;;;;;;3.93;3.10;;;8.90;99.90;;;;;;5011063;28;20203;-68
2022/04/19 07:06:26;;;;;;;4.40;3.10;;;8.90;99.90;;;;;;5010444;28;20259;-69
2022/04/19 07:09:10;;;;;;;3.53;2.80;;;8.90;99.90;;;;;;5022745;28;20211;-69
2022/04/19 07:11:54;;;;;;;4.23;3.03;;;9.00;99.90;;;;;;5034524;28;20209;-69
2022/04/19 07:14:38;;;;;;;4.20;2.67;;;9.10;99.90;;;;;;5007227;28;20201;-67
2022/04/19 07:17:22;;;;;;;6.40;2.37;;;9.10;99.90;;;;;;5005519;28;20731;-67
2022/04/19 07:29:20;;;;;;;2.90;2.17;;;9.40;99.90;;;;;;5014453;28;20260;-67
2022/04/19 07:32:06;;;;;;;3.10;1.87;;;9.50;99.90;;;;;;5005532;28;20243;-68
2022/04/19 07:34:51;;;;;;;2.00;1.80;;;9.60;99.90;;;;;;5009307;28;20187;-68
2022/04/19 07:37:35;;;;;;;2.07;1.63;;;9.70;99.90;;;;;;5013299;28;20596;-69
2022/04/19 07:40:19;;;;;;;2.00;1.80;;;9.70;99.90;;;;;;5012544;28;20203;-66
2022/04/19 07:43:04;;;;;;;2.17;1.80;;;9.80;99.90;;;;;;5025864;28;20231;-67
2022/04/19 07:45:48;;;;;;;1.90;1.70;;;9.90;99.90;;;;;;5012018;28;20239;-67
2022/04/19 07:48:32;;;;;;;2.87;1.70;;;10.00;99.90;;;;;;5009412;28;20195;-68
2022/04/19 07:51:17;;;;;;;2.30;1.60;;;10.00;99.90;;;;;;5010994;28;20204;-67
2022/04/19 07:54:02;;;;;;;4.33;1.97;;;10.10;99.90;;;;;;5001217;28;20228;-67
2022/04/19 07:56:46;;;;;;;2.07;1.87;;;10.10;99.90;;;;;;5002471;28;20219;-67
2022/04/19 07:59:30;;;;;;;3.60;1.97;;;10.20;99.90;;;;;;5008661;28;20195;-67
2022/04/19 08:02:14;;;;;;;1.83;1.40;;;10.30;99.90;;;;;;5012492;28;20295;-68
2022/04/19 08:04:58;;;;;;;1.97;1.63;;;10.30;99.90;;;;;;5008249;28;20223;-68
2022/04/19 08:07:42;;;;;;;2.10;1.70;;;10.40;99.90;;;;;;5015576;28;20257;-68
2022/04/19 08:10:26;;;;;;;1.60;1.50;;;10.40;99.90;;;;;;5040574;28;20219;-68
2022/04/19 08:13:10;;;;;;;3.43;1.83;;;10.50;99.90;;;;;;4998657;28;20200;-67
2022/04/19 08:15:54;;;;;;;3.23;1.43;;;10.50;99.90;;;;;;5010156;28;20237;-68
2022/04/19 08:18:40;;;;;;;2.23;1.50;;;10.50;99.90;;;;;;5010391;28;20194;-67
2022/04/19 08:21:24;;;;;;;2.63;1.17;;;10.60;99.90;;;;;;5005839;28;20188;-67
2022/04/19 08:24:08;;;;;;;3.10;1.57;;;10.80;99.90;;;;;;5011248;28;20230;-67
2022/04/19 08:26:52;;;;;;;1.10;1.10;;;10.80;99.90;;;;;;5011840;28;20214;-68
2022/04/19 08:29:36;;;;;;;3.43;1.10;;;10.90;99.90;;;;;;5010951;28;20226;-68
2022/04/19 08:32:20;;;;;;;1.20;1.10;;;10.90;99.90;;;;;;4992624;28;20164;-67
2022/04/19 08:35:05;;;;;;;1.10;1.00;;;10.90;99.90;;;;;;5015573;28;20219;-68
2022/04/19 08:37:50;;;;;;;1.83;1.00;;;10.90;99.90;;;;;;5014973;28;20191;-68
2022/04/19 08:40:35;;;;;;;0.97;0.90;;;11.00;99.90;;;;;;5041889;28;20202;-69
2022/04/19 08:43:20;;;;;;;2.93;1.03;;;11.10;99.90;;;;;;5030495;28;20199;-67
2022/04/19 08:46:05;;;;;;;1.63;0.80;;;11.10;99.90;;;;;;5014338;28;20207;-69
2022/04/19 08:48:49;;;;;;;2.23;1.07;;;11.20;99.90;;;;;;5011808;28;20190;-68
2022/04/19 08:51:36;;;;;;;2.53;0.93;;;11.30;99.90;;;;;;5012582;28;20273;-69
2022/04/19 08:57:32;;;;;;;1.33;0.90;;;11.50;99.90;;;;;;5010343;28;20226;-67
2022/04/19 09:00:22;;;;;;;1.13;0.80;;;11.50;99.90;;;;;;5009864;28;20192;-68
2022/04/19 09:03:06;;;;;;;0.77;0.77;;;11.50;99.90;;;;;;5007329;28;20198;-68
2022/04/19 09:05:52;;;;;;;2.67;0.97;;;11.60;99.90;;;;;;5011266;28;20899;-69
2022/04/19 09:08:36;;;;;;;1.17;1.07;;;11.70;99.90;;;;;;5009255;28;20724;-68
2022/04/19 09:11:33;;;;;;;0.83;0.83;;;11.80;99.90;;;;;;5010551;28;20207;-69
2022/04/19 09:14:18;;;;;;;1.97;0.90;;;11.90;99.90;;;;;;5013906;28;20327;-68
2022/04/19 09:17:04;;;;;;;0.70;0.70;;;12.00;99.90;;;;;;5006855;28;20284;-70
2022/04/19 09:19:49;;;;;;;0.80;0.80;;;12.00;99.90;;;;;;5011891;28;20224;-68
2022/04/19 09:22:34;;;;;;;1.47;1.20;;;12.10;99.90;;;;;;5011212;28;20196;-68
2022/04/19 09:25:20;;;;;;;0.90;0.90;;;12.20;99.90;;;;;;5008931;28;20222;-68
2022/04/19 09:28:25;;;;;;;0.80;0.80;;;12.30;99.90;;;;;;5009643;28;20196;-69
2022/04/19 09:31:13;;;;;;;1.83;1.30;;;12.30;99.90;;;;;;5004174;28;20750;-69
2022/04/19 09:33:58;;;;;;;1.93;1.30;;;12.30;99.90;;;;;;5010714;28;20255;-68
2022/04/19 09:36:42;;;;;;;3.37;1.50;;;12.30;99.90;;;;;;5006622;28;20208;-68
2022/04/19 09:39:27;;;;;;;4.03;1.33;;;12.30;99.90;;;;;;5010099;28;20194;-69
2022/04/19 09:42:14;;;;;;;2.20;1.20;;;12.30;99.90;;;;;;5009569;28;20195;-69
2022/04/19 09:44:58;;;;;;;2.20;1.33;;;12.30;99.90;;;;;;5009383;28;20231;-69
2022/04/19 09:47:52;;;;;;;1.00;1.00;;;12.30;99.90;;;;;;5010241;28;20586;-68
2022/04/19 09:50:37;;;;;;;1.53;1.20;;;12.40;99.90;;;;;;5010881;28;20243;-68
2022/04/19 09:53:26;;;;;;;1.63;1.17;;;12.50;99.90;;;;;;5009804;28;20238;-68
2022/04/19 09:56:18;;;;;;;1.30;1.10;;;12.60;99.90;;;;;;5008843;28;20263;-68
2022/04/19 09:59:03;;;;;;;2.73;1.40;;;12.60;99.90;;;;;;5010850;28;20176;-68
2022/04/19 10:08:13;;;;;;;2.17;1.57;;;12.80;99.90;;;;;;5010196;28;20195;-68
2022/04/19 10:10:58;;;;;;;2.20;1.20;;;12.80;99.90;;;;;;5008054;28;20219;-69
2022/04/19 10:13:43;;;;;;;2.03;1.27;;;12.80;99.90;;;;;;5009224;28;20196;-69
2022/04/19 10:16:29;;;;;;;1.40;1.20;;;12.90;99.90;;;;;;5008982;28;20282;-67
2022/04/19 10:19:14;;;;;;;1.90;1.13;;;12.90;99.90;;;;;;5006959;28;20242;-68
2022/04/19 10:22:05;;;;;;;2.03;1.27;;;12.90;99.90;;;;;;5007368;28;20188;-68
2022/04/19 10:24:52;;;;;;;1.50;1.20;;;12.90;99.90;;;;;;5010332;28;20187;-68
2022/04/19 10:27:36;;;;;;;1.40;1.20;;;13.00;99.90;;;;;;5009374;28;20187;-68
2022/04/19 10:30:22;;;;;;;1.23;1.10;;;13.10;99.90;;;;;;5006354;28;20295;-69
2022/04/19 10:33:48;;;;;;;2.70;1.60;;;13.10;99.90;;;;;;5025962;28;20231;-69
2022/04/19 10:36:39;;;;;;;2.77;1.40;;;13.30;99.90;;;;;;4937289;28;20224;-68
2022/04/19 10:39:31;;;;;;;1.83;1.20;;;13.30;99.90;;;;;;5024325;28;20343;-68
2022/04/19 10:42:36;;;;;;;1.60;1.30;;;13.30;99.90;;;;;;5012225;28;20722;-69
2022/04/19 10:45:25;;;;;;;2.27;1.50;;;13.30;99.90;;;;;;5006479;28;20223;-69
2022/04/19 10:48:10;;;;;;;1.20;1.10;;;13.40;99.90;;;;;;5021875;28;20267;-68
2022/04/19 10:50:55;;;;;;;1.47;1.00;;;13.40;99.90;;;;;;5010654;28;20255;-68
2022/04/19 10:53:39;;;;;;;3.10;1.40;;;13.40;99.90;;;;;;5013011;28;20231;-69
2022/04/19 10:56:23;;;;;;;1.57;1.13;;;13.40;99.90;;;;;;5011947;28;20215;-67
2022/04/19 10:59:20;;;;;;;2.17;1.30;;;13.50;99.90;;;;;;5028810;28;20187;-68
2022/04/19 11:02:35;;;;;;;2.27;1.23;;;13.60;99.90;;;;;;5014318;28;20302;-68
2022/04/19 11:05:41;;;;;;;2.60;1.97;;;13.60;99.90;;;;;;5009083;28;20278;-70
2022/04/19 11:08:26;;;;;;;1.20;1.10;;;13.80;99.90;;;;;;5010796;28;20196;-68
2022/04/19 11:11:31;;;;;;;2.33;1.20;;;13.90;99.90;;;;;;5013323;28;20219;-68
2022/04/19 11:14:40;;;;;;;4.40;1.30;;;13.90;99.90;;;;;;5014920;28;20219;-68
2022/04/19 11:17:41;;;;;;;3.03;1.23;;;14.00;99.90;;;;;;5013439;28;20195;-69
2022/04/19 11:20:45;;;;;;;3.17;1.03;;;14.00;99.90;;;;;;5014811;28;20253;-68
2022/04/19 11:23:43;;;;;;;2.50;1.27;;;14.00;99.90;;;;;;5012936;28;20199;-69
2022/04/19 11:26:33;;;;;;;1.60;1.30;;;13.90;99.90;;;;;;5014623;28;20223;-70
2022/04/19 11:29:18;;;;;;;2.00;0.90;;;13.90;99.90;;;;;;5014567;28;20692;-69
2022/04/19 11:32:02;;;;;;;2.60;0.97;;;14.00;99.90;;;;;;5009895;28;20199;-69
2022/04/19 11:35:04;;;;;;;0.70;0.70;;;14.10;99.90;;;;;;5013446;28;20229;-68
2022/04/19 11:37:48;;;;;;;1.30;0.80;;;14.20;99.90;;;;;;5010832;28;20190;-70
2022/04/19 11:46:48;;;;;;;2.90;1.13;;;14.40;99.90;;;;;;5012131;28;20211;-71
2022/04/19 11:49:34;;;;;;;1.13;1.00;;;14.50;99.90;;;;;;5010546;28;20223;-70
2022/04/19 11:52:20;;;;;;;1.40;0.97;;;14.50;99.90;;;;;;5009643;28;20264;-70
2022/04/19 11:55:04;;;;;;;1.37;1.07;;;14.50;99.90;;;;;;5013549;28;20223;-70
2022/04/19 11:58:00;;;;;;;3.07;0.90;;;14.40;99.90;;;;;;5025240;28;20195;-71
2022/04/19 12:00:55;;;;;;;1.83;0.90;;;14.50;99.90;;;;;;5012083;28;20272;-71
2022/04/19 12:03:40;;;;;;;1.53;0.90;;;14.60;99.90;;;;;;5014678;28;20274;-70
2022/04/19 12:06:24;;;;;;;1.17;0.83;;;14.50;99.90;;;;;;5011632;28;20644;-70
2022/04/19 12:09:14;;;;;;;2.47;1.00;;;14.60;99.90;;;;;;5007704;28;20191;-70
2022/04/19 12:12:00;;;;;;;1.37;1.00;;;14.60;99.90;;;;;;5005901;28;20184;-70
2022/04/19 12:14:52;;;;;;;3.03;1.10;;;14.70;99.90;;;;;;5002007;28;20192;-70
2022/04/19 12:17:44;;;;;;;1.40;1.23;;;14.80;99.90;;;;;;5006373;28;20204;-71
2022/04/19 12:20:39;;;;;;;2.40;0.90;;;14.90;99.90;;;;;;5010511;28;20355;-70
2022/04/19 12:23:24;;;;;;;1.37;0.83;;;15.00;99.90;;;;;;5015622;28;20236;-70
2022/04/19 12:26:10;;;;;;;1.10;0.97;;;15.00;99.90;;;;;;5018315;28;20306;-71
2022/04/19 12:29:07;;;;;;;1.50;1.07;;;15.10;99.90;;;;;;5008460;28;20216;-71
2022/04/19 12:31:57;;;;;;;1.43;1.33;;;15.10;99.90;;;;;;5005730;28;20200;-71
2022/04/19 12:34:42;;;;;;;1.23;1.20;;;15.10;99.90;;;;;;5010418;28;20230;-71
2022/04/19 12:37:26;;;;;;;1.40;1.00;;;15.10;99.90;;;;;;5007797;28;20231;-71
2022/04/19 12:40:10;;;;;;;1.47;1.03;;;15.10;99.90;;;;;;5010994;28;20192;-75
2022/04/19 12:42:55;;;;;;;2.47;1.00;;;15.20;99.90;;;;;;5007147;28;20234;-75
2022/04/19 12:45:40;;;;;;;0.80;0.80;;;15.20;99.90;;;;;;5011547;28;20282;-75
2022/04/19 12:48:24;;;;;;;1.30;1.20;;;15.20;99.90;;;;;;5012846;28;20205;-76
2022/04/19 12:51:08;;;;;;;0.93;0.90;;;15.20;99.90;;;;;;5024682;28;20243;-76
2022/04/19 12:54:06;;;;;;;1.90;1.10;;;15.30;99.90;;;;;;5010076;28;20208;-77
2022/04/19 12:57:34;;;;;;;0.83;0.80;;;15.20;99.90;;;;;;5008613;28;20219;-77
2022/04/19 13:00:18;;;;;;;1.30;1.10;;;15.20;99.90;;;;;;5010783;28;20512;-77
2022/04/19 13:03:03;;;;;;;1.37;1.27;;;15.10;99.90;;;;;;5013986;28;20192;-75
2022/04/19 13:15:00;;;;;;;1.03;0.83;;;15.30;99.90;;;;;;5011524;28;20439;-73
2022/04/19 13:17:44;;;;;;;1.40;0.97;;;15.30;99.90;;;;;;5008420;28;20215;-73
2022/04/19 13:20:28;;;;;;;1.30;1.00;;;15.40;99.90;;;;;;5012018;28;20231;-74
2022/04/19 13:23:13;;;;;;;1.93;0.87;;;15.40;99.90;;;;;;5010354;28;20277;-73
2022/04/19 13:25:57;;;;;;;0.90;0.80;;;15.50;99.90;;;;;;5013781;28;20222;-73
2022/04/19 13:28:41;;;;;;;1.20;1.10;;;15.50;99.90;;;;;;5012884;28;20184;-74
2022/04/19 13:31:25;;;;;;;1.77;1.10;;;15.50;99.90;;;;;;5015409;28;20247;-73
2022/04/19 13:34:10;;;;;;;1.47;1.10;;;15.50;99.90;;;;;;5026378;28;20192;-73
2022/04/19 13:36:58;;;;;;;1.03;0.90;;;15.50;99.90;;;;;;5011574;28;20231;-73
2022/04/19 13:39:43;;;;;;;1.20;0.90;;;15.50;99.90;;;;;;5010757;28;20191;-73
2022/04/19 13:42:27;;;;;;;0.93;0.90;;;15.60;99.90;;;;;;5011398;28;20188;-74
2022/04/19 13:45:12;;;;;;;1.33;1.23;;;15.60;99.90;;;;;;5013945;28;20221;-73
2022/04/19 13:47:57;;;;;;;0.70;0.70;;;15.60;99.90;;;;;;5011654;28;20239;-74
2022/04/19 13:50:41;;;;;;;0.60;0.60;;;15.70;99.90;;;;;;5008115;28;20215;-73
2022/04/19 13:53:26;;;;;;;1.13;0.93;;;15.80;99.90;;;;;;5011483;28;20695;-74
2022/04/19 13:56:10;;;;;;;0.90;0.90;;;15.80;99.90;;;;;;5008753;28;20216;-74
2022/04/19 13:58:55;;;;;;;1.27;0.83;;;15.70;99.90;;;;;;5014812;28;20251;-71
2022/04/19 14:01:41;;;;;;;1.67;1.10;;;15.70;99.90;;;;;;5028391;28;20284;-74
2022/04/19 14:04:25;;;;;;;2.37;1.07;;;15.70;99.90;;;;;;5009706;28;20533;-74
2022/04/19 14:07:10;;;;;;;0.97;0.90;;;15.70;99.90;;;;;;5009680;28;20219;-74
2022/04/19 14:09:54;;;;;;;1.03;0.90;;;15.70;99.90;;;;;;5010236;28;20360;-74
2022/04/19 14:12:38;;;;;;;0.80;0.73;;;15.70;99.90;;;;;;5011356;28;20183;-74
2022/04/19 14:15:23;;;;;;;1.73;1.00;;;15.80;99.90;;;;;;5011340;28;20323;-74
2022/04/19 14:18:07;;;;;;;4.43;1.10;;;15.90;99.90;;;;;;5009412;28;20200;-73
2022/04/19 14:20:51;;;;;;;1.50;0.90;;;15.80;99.90;;;;;;5018929;28;20614;-74
2022/04/19 14:23:35;;;;;;;3.53;1.03;;;15.80;99.90;;;;;;5035916;28;20183;-73
2022/04/19 14:26:19;;;;;;;1.50;0.70;;;15.90;99.90;;;;;;5025750;28;20227;-73
2022/04/19 14:35:10;;;;;;;1.83;1.20;;;16.00;99.90;;;;;;5022434;28;20218;-74
2022/04/19 14:37:54;;;;;;;1.33;1.00;;;16.10;99.90;;;;;;5023305;28;20222;-73
2022/04/19 14:40:39;;;;;;;3.93;1.00;;;16.10;99.90;;;;;;5020631;28;20235;-75
2022/04/19 14:43:23;;;;;;;1.40;1.30;;;16.00;99.90;;;;;;5024458;28;20655;-74
2022/04/19 14:46:07;;;;;;;2.23;1.00;;;16.10;99.90;;;;;;5038902;28;20207;-74
2022/04/19 14:48:52;;;;;;;1.20;1.10;;;16.10;99.90;;;;;;5034669;28;20176;-74
2022/04/19 14:54:46;;;;;;;1.30;1.20;;;16.10;99.90;;;;;;5015560;28;20199;-75
2022/04/19 14:57:30;;;;;;;2.53;1.00;;;16.20;99.90;;;;;;5028046;28;20196;-74
2022/04/19 15:00:14;;;;;;;1.30;1.20;;;16.20;99.90;;;;;;5014309;28;20219;-74
2022/04/19 15:02:59;;;;;;;1.80;0.97;;;16.20;99.90;;;;;;5012344;28;20227;-74
2022/04/19 15:05:44;;;;;;;1.03;0.93;;;16.20;99.90;;;;;;5030951;28;20699;-75
2022/04/19 15:08:28;;;;;;;1.57;1.30;;;16.30;99.90;;;;;;5015477;28;20235;-73
2022/04/19 15:11:13;;;;;;;1.10;1.00;;;16.30;99.90;;;;;;5032489;28;20707;-75
2022/04/19 15:13:57;;;;;;;4.37;1.17;;;16.30;99.90;;;;;;5017280;28;20222;-74
2022/04/19 15:16:41;;;;;;;2.07;1.17;;;16.30;99.90;;;;;;5013859;28;20319;-75
2022/04/19 15:19:26;;;;;;;1.30;1.17;;;16.20;99.90;;;;;;5030130;28;20191;-74
2022/04/19 15:22:10;;;;;;;1.97;1.13;;;16.30;99.90;;;;;;5030929;28;20215;-75
2022/04/19 15:24:54;;;;;;;3.53;1.30;;;16.30;99.90;;;;;;5015980;28;20235;-74
2022/04/19 15:27:38;;;;;;;3.90;1.07;;;16.30;99.90;;;;;;5015557;28;20241;-75
2022/04/19 15:30:26;;;;;;;2.97;1.17;;;16.40;99.90;;;;;;5011881;28;20207;-75